Time;durP1;ratioP1;P1;durP2;ratioP2;P2;SDS_P1;SDS_P2;PMS_P1;PMS_P2;Temp;Humidity;BMP_temperature;BMP_pressure;BME280_temperature;BME280_humidity;BME280_pressure;Samples;Min_cycle;Max_cycle;Signal;HPM_P1;HPM_P2
2022/08/11 00:01:11;;;;;;;6.00;3.43;;;16.20;36.20;;;;;;5004377;28;20465;-84
2022/08/11 00:03:46;;;;;;;7.20;3.97;;;16.10;36.00;;;;;;5005192;28;20496;-84
2022/08/11 00:06:15;;;;;;;18.20;5.57;;;16.00;34.60;;;;;;5022001;28;20454;-85
2022/08/11 00:08:42;;;;;;;7.60;3.80;;;15.90;35.50;;;;;;5007708;28;20461;-84
2022/08/11 00:11:12;;;;;;;8.70;5.00;;;15.80;35.90;;;;;;5017217;28;20473;-84
2022/08/11 00:13:41;;;;;;;8.53;3.83;;;15.80;36.80;;;;;;5023599;28;20474;-84
2022/08/11 00:16:15;;;;;;;7.53;4.23;;;15.70;38.10;;;;;;5009365;28;20826;-85
2022/08/11 00:18:43;;;;;;;8.43;4.20;;;15.70;39.40;;;;;;5003494;28;20983;-85
2022/08/11 00:21:11;;;;;;;7.90;3.80;;;15.60;40.20;;;;;;5017604;28;20445;-83
2022/08/11 00:23:43;;;;;;;8.40;3.70;;;15.60;40.20;;;;;;5022195;28;21061;-84
2022/08/11 00:26:10;;;;;;;6.10;3.60;;;15.60;40.20;;;;;;5011289;28;20454;-85
2022/08/11 00:28:37;;;;;;;7.50;4.07;;;15.50;40.20;;;;;;5004269;28;20458;-85
2022/08/11 00:31:05;;;;;;;7.70;4.00;;;15.60;40.20;;;;;;5013379;28;20487;-84
2022/08/11 00:33:38;;;;;;;8.43;4.30;;;15.50;41.00;;;;;;5019732;28;20477;-83
2022/08/11 00:36:06;;;;;;;7.43;4.30;;;15.40;40.10;;;;;;5010077;28;20512;-85
2022/08/11 00:38:37;;;;;;;7.50;3.93;;;15.50;41.70;;;;;;5001922;28;20450;-84
2022/08/11 00:41:20;;;;;;;7.83;3.87;;;15.30;42.40;;;;;;5012321;28;20960;-84
2022/08/11 00:44:04;;;;;;;6.73;3.70;;;15.30;42.00;;;;;;5020936;28;20485;-84
2022/08/11 00:46:42;;;;;;;6.60;3.70;;;15.30;42.20;;;;;;5003462;28;20493;-84
2022/08/11 00:49:23;;;;;;;6.10;3.37;;;15.20;41.90;;;;;;4999449;28;20454;-84
2022/08/11 00:52:02;;;;;;;7.20;4.30;;;15.20;42.80;;;;;;5013989;28;20480;-84
2022/08/11 00:54:54;;;;;;;9.23;3.83;;;15.20;43.00;;;;;;5019288;28;20999;-84
2022/08/11 00:57:53;;;;;;;8.67;4.80;;;15.10;43.90;;;;;;4995433;28;20449;-84
2022/08/11 01:00:22;;;;;;;7.00;3.60;;;15.10;44.00;;;;;;4986597;28;20520;-83
2022/08/11 01:03:32;;;;;;;8.80;3.70;;;15.00;44.40;;;;;;5021131;28;20522;-85
2022/08/11 01:06:37;;;;;;;12.67;3.93;;;14.90;44.50;;;;;;4974577;28;20459;-85
2022/08/11 01:09:18;;;;;;;7.40;4.20;;;14.90;45.90;;;;;;4961608;29;20970;-85
2022/08/11 01:12:14;;;;;;;6.50;4.17;;;14.80;46.40;;;;;;5010254;28;20476;-84
2022/08/11 01:15:17;;;;;;;6.63;3.37;;;14.80;46.70;;;;;;5017273;28;20481;-84
2022/08/11 01:18:27;;;;;;;7.67;4.47;;;14.70;48.90;;;;;;4967359;28;20458;-84
2022/08/11 01:21:39;;;;;;;9.40;4.23;;;14.70;47.60;;;;;;4948749;28;20462;-84
2022/08/11 01:24:39;;;;;;;7.00;3.40;;;14.60;47.00;;;;;;4982230;28;20851;-84
2022/08/11 01:28:03;;;;;;;7.50;4.10;;;14.60;45.70;;;;;;4979664;28;20459;-83
2022/08/11 01:30:49;;;;;;;7.50;4.37;;;14.50;46.10;;;;;;5000790;28;20481;-84
2022/08/11 01:34:01;;;;;;;7.00;4.03;;;14.60;47.60;;;;;;5018392;28;20481;-84
2022/08/11 01:36:55;;;;;;;6.07;3.93;;;14.60;48.20;;;;;;4998965;28;20454;-84
2022/08/11 01:39:56;;;;;;;9.57;5.10;;;14.60;49.30;;;;;;5000670;28;20481;-85
2022/08/11 01:45:57;;;;;;;7.53;4.07;;;14.50;51.00;;;;;;4970994;28;20533;-83
2022/08/11 01:48:36;;;;;;;7.50;4.67;;;14.50;51.00;;;;;;4978057;28;20462;-84
2022/08/11 01:51:16;;;;;;;8.10;5.07;;;14.50;51.80;;;;;;5008918;28;21045;-84
2022/08/11 01:53:54;;;;;;;12.53;4.23;;;14.40;51.80;;;;;;4978204;28;20453;-83
2022/08/11 01:56:33;;;;;;;8.47;4.23;;;14.30;51.90;;;;;;5010480;28;20940;-84
2022/08/11 01:59:10;;;;;;;10.87;4.20;;;14.30;51.40;;;;;;5016766;28;20457;-84
2022/08/11 02:01:52;;;;;;;10.47;4.30;;;14.20;50.10;;;;;;4999240;28;20442;-84
2022/08/11 02:04:29;;;;;;;8.47;4.63;;;14.20;51.90;;;;;;5013246;28;20468;-84
2022/08/11 02:07:04;;;;;;;9.00;4.43;;;14.10;53.60;;;;;;4979276;28;20461;-84
2022/08/11 02:12:58;;;;;;;8.20;5.50;;;14.10;55.80;;;;;;4995497;28;20487;-84
2022/08/11 02:15:33;;;;;;;7.90;4.80;;;14.00;56.30;;;;;;4980996;28;20458;-85
2022/08/11 02:18:08;;;;;;;7.67;4.70;;;14.00;56.30;;;;;;5006342;28;20502;-85
2022/08/11 02:23:42;;;;;;;9.67;5.27;;;13.90;56.20;;;;;;5010945;28;20473;-85
2022/08/11 02:26:20;;;;;;;10.20;6.00;;;13.90;56.80;;;;;;5004178;28;20454;-85
2022/08/11 02:29:03;;;;;;;12.03;5.67;;;13.90;58.30;;;;;;5017783;28;20450;-83
2022/08/11 02:34:38;;;;;;;7.60;5.50;;;13.90;60.30;;;;;;4984168;28;20457;-84
2022/08/11 02:37:16;;;;;;;12.40;6.43;;;13.80;59.40;;;;;;4983909;28;20505;-85
2022/08/11 02:39:53;;;;;;;16.40;6.17;;;13.90;59.50;;;;;;4982620;28;20455;-84
2022/08/11 02:42:30;;;;;;;8.03;5.00;;;13.80;59.40;;;;;;5002461;28;20445;-84
2022/08/11 02:45:19;;;;;;;8.50;5.07;;;13.80;60.60;;;;;;5021040;28;20461;-85
2022/08/11 02:50:39;;;;;;;8.00;5.20;;;13.60;57.60;;;;;;4999911;28;20895;-85
2022/08/11 02:53:12;;;;;;;8.57;5.37;;;13.50;58.20;;;;;;5015603;28;20472;-84
2022/08/11 02:55:52;;;;;;;9.87;4.83;;;13.50;59.60;;;;;;5002435;28;20472;-85
2022/08/11 02:58:31;;;;;;;9.63;5.67;;;13.50;59.60;;;;;;5018825;28;20451;-84
2022/08/11 03:01:12;;;;;;;10.10;5.27;;;13.40;59.20;;;;;;5021661;28;20453;-84
2022/08/11 03:03:51;;;;;;;9.83;5.00;;;13.40;59.40;;;;;;5004926;28;20473;-84
2022/08/11 03:06:28;;;;;;;8.23;5.83;;;13.30;60.70;;;;;;5006861;28;20833;-85
2022/08/11 03:09:03;;;;;;;8.37;5.50;;;13.30;61.40;;;;;;5024533;28;20452;-84
2022/08/11 03:17:36;;;;;;;8.37;5.90;;;13.20;62.00;;;;;;5001866;28;20448;-85
2022/08/11 03:20:15;;;;;;;12.73;6.77;;;13.20;62.10;;;;;;5020142;28;20470;-83
2022/08/11 03:22:54;;;;;;;9.47;7.00;;;13.10;63.40;;;;;;4981682;28;20446;-84
2022/08/11 03:25:30;;;;;;;10.20;6.53;;;13.20;63.90;;;;;;5004895;28;20465;-85
2022/08/11 03:28:11;;;;;;;8.80;6.07;;;13.10;63.80;;;;;;5007095;28;20449;-87
2022/08/11 03:30:48;;;;;;;12.73;6.67;;;13.10;66.20;;;;;;5017986;28;20488;-80
2022/08/11 03:36:51;;;;;;;8.77;6.00;;;13.10;66.70;;;;;;4960617;29;20454;-81
2022/08/11 03:39:23;;;;;;;9.87;5.87;;;13.10;66.30;;;;;;4981880;28;20452;-80
2022/08/11 03:41:59;;;;;;;12.83;6.87;;;13.10;66.40;;;;;;5017817;28;20445;-82
2022/08/11 03:44:34;;;;;;;12.43;8.03;;;13.20;66.90;;;;;;5010115;28;20844;-81
2022/08/11 03:47:22;;;;;;;10.90;9.57;;;13.30;66.90;;;;;;4998500;28;20457;-81
2022/08/11 03:50:06;;;;;;;10.43;8.50;;;13.30;67.90;;;;;;4997077;28;20446;-82
2022/08/11 03:53:16;;;;;;;16.53;9.20;;;13.40;67.80;;;;;;5016117;28;20478;-85
2022/08/11 03:56:23;;;;;;;10.87;9.57;;;13.30;68.00;;;;;;5016976;28;20481;-82
2022/08/11 03:59:17;;;;;;;12.00;9.50;;;13.30;69.20;;;;;;4999307;28;20461;-82
2022/08/11 04:02:10;;;;;;;17.60;7.80;;;13.30;68.90;;;;;;5002863;28;20461;-82
2022/08/11 04:05:03;;;;;;;16.20;8.20;;;13.40;68.10;;;;;;4982924;28;20478;-82
2022/08/11 04:08:27;;;;;;;17.00;8.60;;;13.40;66.50;;;;;;4981447;28;20458;-83
2022/08/11 04:11:17;;;;;;;14.57;7.63;;;13.30;64.90;;;;;;4942705;29;20488;-86
2022/08/11 04:17:18;;;;;;;15.97;6.73;;;13.30;64.00;;;;;;5003360;28;20524;-84
2022/08/11 04:20:31;;;;;;;13.53;6.80;;;13.20;63.90;;;;;;4997295;28;20446;-81
2022/08/11 04:23:14;;;;;;;13.60;7.40;;;13.20;64.70;;;;;;4971029;28;20482;-83
2022/08/11 04:26:07;;;;;;;11.83;7.87;;;13.20;63.90;;;;;;4985728;28;20457;-82
2022/08/11 04:28:49;;;;;;;14.70;7.70;;;13.20;63.90;;;;;;4985646;28;20514;-83
2022/08/11 04:31:37;;;;;;;11.50;7.53;;;13.20;65.40;;;;;;4984184;28;20482;-83
2022/08/11 04:34:36;;;;;;;13.00;7.63;;;13.20;66.60;;;;;;5014698;28;20469;-82
2022/08/11 04:37:41;;;;;;;10.40;7.93;;;13.20;66.90;;;;;;4997443;28;20453;-83
2022/08/11 04:40:49;;;;;;;12.53;7.20;;;13.20;68.20;;;;;;5010103;28;20824;-85
2022/08/11 04:43:39;;;;;;;11.90;6.90;;;13.30;68.20;;;;;;5019683;28;20465;-84
2022/08/11 04:46:26;;;;;;;14.73;7.70;;;13.30;67.10;;;;;;5004568;28;20821;-86
2022/08/11 05:02:17;;;;;;;10.40;5.83;;;13.60;64.30;;;;;;4988220;28;20497;-85
2022/08/11 05:11:43;;;;;;;10.50;5.90;;;13.90;63.20;;;;;;5015383;28;20984;-85
2022/08/11 05:37:22;;;;;;;22.20;6.67;;;15.50;60.50;;;;;;4974173;28;20547;-83
2022/08/11 05:57:18;;;;;;;9.00;4.83;;;20.00;41.70;;;;;;4976766;28;20460;-83
2022/08/11 05:59:48;;;;;;;17.73;4.90;;;20.60;40.30;;;;;;4977092;28;20860;-83
2022/08/11 06:02:18;;;;;;;16.70;5.33;;;21.10;36.30;;;;;;4977012;28;20500;-82
2022/08/11 06:04:46;;;;;;;16.13;4.57;;;21.50;36.30;;;;;;4976445;28;20476;-83
2022/08/11 06:07:19;;;;;;;25.93;5.40;;;21.90;30.50;;;;;;4977430;28;20457;-83
2022/08/11 06:09:51;;;;;;;15.40;4.50;;;22.20;26.00;;;;;;4982327;28;20443;-83
2022/08/11 06:16:00;;;;;;;7.27;3.93;;;22.70;21.60;;;;;;4983608;28;20455;-88
2022/08/11 06:22:25;;;;;;;10.57;3.77;;;23.20;19.10;;;;;;4896750;29;20221;-84
2022/08/11 06:25:08;;;;;;;7.30;4.03;;;23.30;17.20;;;;;;5010919;23;20496;-84
2022/08/11 06:27:41;;;;;;;14.23;4.10;;;23.50;16.00;;;;;;5022426;28;20461;-85
2022/08/11 06:34:18;;;;;;;;;;;;;;;;;;;;;
2022/08/11 06:46:31;;;;;;;8.77;3.87;;;23.70;10.60;;;;;;5123790;23;20459;-83
2022/08/11 07:02:27;;;;;;;8.27;3.73;;;22.90;13.60;;;;;;5003838;28;20474;-83
2022/08/11 07:15:49;;;;;;;6.67;3.43;;;22.70;10.10;;;;;;4997590;28;20474;-83
2022/08/11 07:34:59;;;;;;;7.90;3.70;;;23.50;8.30;;;;;;4991469;28;20496;-83
2022/08/11 07:37:34;;;;;;;7.47;3.40;;;23.80;7.30;;;;;;5006801;28;20470;-83
2022/08/11 07:40:30;;;;;;;9.93;3.90;;;23.90;5.90;;;;;;5006670;28;20461;-83
2022/08/11 07:55:33;;;;;;;;;;;;;;;;;;;;;
2022/08/11 08:18:00;;;;;;;7.97;3.17;;;27.10;1.00;;;;;;5045257;28;20431;-85
2022/08/11 08:20:29;;;;;;;9.23;2.93;;;27.90;1.00;;;;;;5045337;28;20456;-84
2022/08/11 08:23:00;;;;;;;10.27;3.37;;;28.00;1.00;;;;;;5044811;28;20486;-85
2022/08/11 08:25:34;;;;;;;9.63;4.00;;;28.20;1.00;;;;;;5043199;28;20463;-85
2022/08/11 08:28:06;;;;;;;16.70;3.50;;;28.60;1.00;;;;;;5045094;28;20430;-85
2022/08/11 08:30:49;;;;;;;7.10;2.80;;;28.90;1.00;;;;;;5045206;28;20431;-85
2022/08/11 08:33:23;;;;;;;9.17;3.87;;;29.10;1.00;;;;;;5044345;28;20504;-84
2022/08/11 08:36:10;;;;;;;8.57;3.83;;;29.60;1.00;;;;;;5044571;28;20466;-85
2022/08/11 08:38:37;;;;;;;11.07;3.87;;;29.80;1.00;;;;;;5044404;28;20518;-84
2022/08/11 08:41:06;;;;;;;16.07;3.23;;;29.90;1.00;;;;;;5043504;28;20462;-84
2022/08/11 08:43:34;;;;;;;7.70;3.17;;;30.10;1.00;;;;;;5042554;28;20458;-84
2022/08/11 08:46:02;;;;;;;6.20;3.00;;;30.30;1.00;;;;;;5043911;28;20419;-85
2022/08/11 08:48:32;;;;;;;21.30;3.23;;;30.40;1.00;;;;;;5045080;28;20461;-85
2022/08/11 08:53:55;;;;;;;28.53;4.20;;;30.60;1.00;;;;;;5036363;28;20464;-83
2022/08/11 08:56:28;;;;;;;7.50;2.97;;;31.20;1.00;;;;;;5043418;28;20449;-84
2022/08/11 08:58:57;;;;;;;15.17;3.80;;;31.40;1.00;;;;;;5044209;28;20456;-84
2022/08/11 09:01:25;;;;;;;7.23;2.90;;;31.60;1.00;;;;;;5043234;28;20426;-84
2022/08/11 09:03:52;;;;;;;8.37;2.77;;;32.00;1.00;;;;;;5043081;28;20465;-84
2022/08/11 09:06:19;;;;;;;16.20;4.07;;;31.90;1.00;;;;;;5043769;28;20794;-85
2022/08/11 09:08:46;;;;;;;7.90;3.10;;;32.00;1.00;;;;;;5043832;28;20435;-85
2022/08/11 09:14:02;;;;;;;6.07;2.67;;;32.20;1.00;;;;;;5043220;28;20430;-85
2022/08/11 09:16:30;;;;;;;19.90;3.53;;;32.00;1.00;;;;;;5043313;28;20452;-85
2022/08/11 09:18:59;;;;;;;5.20;2.40;;;32.20;1.00;;;;;;5043197;28;20427;-85
2022/08/11 09:21:26;;;;;;;8.83;3.10;;;32.40;1.00;;;;;;5041584;28;20506;-84
2022/08/11 09:26:59;;;;;;;16.30;3.57;;;32.90;1.00;;;;;;5042288;28;20433;-84
2022/08/11 09:29:28;;;;;;;8.17;2.90;;;33.20;1.00;;;;;;5042009;28;20429;-84
2022/08/11 09:31:56;;;;;;;25.97;4.67;;;33.00;1.00;;;;;;5042302;28;20475;-85
2022/08/11 09:34:30;;;;;;;10.23;4.33;;;33.00;1.00;;;;;;5041616;28;20464;-84
2022/08/11 09:45:11;;;;;;;6.87;2.33;;;34.30;1.00;;;;;;5039911;28;20426;-84
2022/08/11 09:47:39;;;;;;;8.23;3.03;;;34.00;1.00;;;;;;5041035;28;20431;-85
2022/08/11 09:50:08;;;;;;;11.40;3.00;;;33.90;1.00;;;;;;5041648;28;20809;-85
2022/08/11 09:52:38;;;;;;;5.57;2.83;;;34.10;1.00;;;;;;5040630;28;20539;-84
2022/08/11 09:55:10;;;;;;;6.82;3.20;;;34.10;1.00;;;;;;5038358;28;20449;-83
2022/08/11 10:00:31;;;;;;;8.60;2.83;;;34.90;1.00;;;;;;5046787;28;20422;-84
2022/08/11 10:03:01;;;;;;;6.10;2.63;;;34.80;1.00;;;;;;5045389;28;20482;-84
2022/08/11 10:08:52;;;;;;;6.80;3.03;;;35.00;1.00;;;;;;5049366;28;20494;-84
2022/08/11 10:11:24;;;;;;;6.07;2.57;;;35.10;1.00;;;;;;5042219;28;20445;-84
2022/08/11 10:16:57;;;;;;;11.03;2.90;;;35.60;1.00;;;;;;5050063;28;20431;-84
2022/08/11 10:19:25;;;;;;;7.00;3.07;;;35.90;1.00;;;;;;5045241;28;20505;-83
2022/08/11 10:27:21;;;;;;;7.93;3.50;;;35.70;1.00;;;;;;5026241;28;20430;-84
2022/08/11 10:35:24;;;;;;;7.00;4.37;;;36.50;1.00;;;;;;5026733;28;20468;-84
2022/08/11 10:37:53;;;;;;;6.60;3.63;;;36.20;1.00;;;;;;5030331;28;20484;-84
2022/08/11 10:40:22;;;;;;;6.53;3.47;;;36.90;1.00;;;;;;5030368;28;20445;-84
2022/08/11 10:43:05;;;;;;;7.83;3.10;;;36.70;1.00;;;;;;5028039;28;20472;-84
2022/08/11 10:48:21;;;;;;;6.07;2.77;;;36.60;1.00;;;;;;5024778;28;20407;-83
2022/08/11 10:59:08;;;;;;;7.13;3.03;;;36.70;1.00;;;;;;5026782;28;20446;-84
2022/08/11 11:01:38;;;;;;;7.40;3.10;;;36.40;1.00;;;;;;5024586;28;20448;-83
2022/08/11 11:04:10;;;;;;;5.70;2.50;;;36.70;1.00;;;;;;5025430;28;20483;-83
2022/08/11 11:06:49;;;;;;;9.53;3.07;;;36.50;1.00;;;;;;5026012;28;20860;-83
2022/08/11 11:09:19;;;;;;;6.83;2.90;;;36.60;1.00;;;;;;5025871;28;20430;-83
2022/08/11 11:20:23;;;;;;;5.33;2.77;;;38.20;1.00;;;;;;5021980;28;20491;-84
2022/08/11 11:22:52;;;;;;;5.23;2.50;;;37.80;1.00;;;;;;5020921;28;20472;-84
2022/08/11 11:25:32;;;;;;;6.93;2.90;;;37.40;1.00;;;;;;5022419;28;20427;-84
2022/08/11 11:28:24;;;;;;;9.07;2.40;;;37.80;1.00;;;;;;5021468;28;20468;-84
2022/08/11 11:31:12;;;;;;;5.80;3.07;;;38.30;1.00;;;;;;5023167;28;20452;-85
2022/08/11 11:33:55;;;;;;;5.40;2.67;;;38.30;1.00;;;;;;5022657;28;20468;-84
2022/08/11 11:36:32;;;;;;;6.87;3.03;;;37.80;1.00;;;;;;5022621;28;21169;-84
2022/08/11 11:39:00;;;;;;;5.80;2.57;;;37.60;1.00;;;;;;5022137;28;20953;-84
2022/08/11 11:41:28;;;;;;;6.30;3.00;;;38.40;1.00;;;;;;5021659;28;20548;-84
2022/08/11 11:43:56;;;;;;;7.50;2.73;;;38.20;1.00;;;;;;5021427;28;20481;-84
2022/08/11 11:46:26;;;;;;;7.87;2.90;;;37.80;1.00;;;;;;5022146;28;20871;-85
2022/08/11 11:48:54;;;;;;;12.10;3.13;;;37.90;1.00;;;;;;5019897;28;20961;-84
2022/08/11 11:51:23;;;;;;;6.10;3.00;;;37.70;1.00;;;;;;5020440;28;20483;-84
2022/08/11 11:53:51;;;;;;;5.63;2.80;;;37.10;1.00;;;;;;5018227;28;20472;-84
2022/08/11 11:56:19;;;;;;;6.70;3.10;;;36.90;1.00;;;;;;5017350;28;20468;-85
2022/08/11 12:01:46;;;;;;;6.87;2.20;;;37.70;1.00;;;;;;5021179;28;20444;-84
2022/08/11 12:04:19;;;;;;;6.10;2.60;;;37.50;1.00;;;;;;5016513;28;20516;-86
2022/08/11 12:06:51;;;;;;;6.57;2.87;;;38.20;1.00;;;;;;5017347;28;21023;-87
2022/08/11 12:09:31;;;;;;;5.80;2.37;;;38.40;1.00;;;;;;5018026;28;20449;-86
2022/08/11 12:14:54;;;;;;;5.30;2.87;;;39.10;1.00;;;;;;5015676;28;20486;-87
2022/08/11 12:20:08;;;;;;;8.10;2.60;;;39.60;1.00;;;;;;5014910;28;20424;-86
2022/08/11 12:28:32;;;;;;;6.67;2.57;;;40.00;1.00;;;;;;4998251;28;20419;-85
2022/08/11 12:31:16;;;;;;;5.03;2.50;;;39.70;1.00;;;;;;5017359;28;20423;-84
2022/08/11 12:33:49;;;;;;;5.10;2.30;;;38.40;1.00;;;;;;5016590;28;20455;-84
2022/08/11 12:36:18;;;;;;;5.80;2.50;;;38.00;1.00;;;;;;5017544;28;20451;-84
2022/08/11 12:38:58;;;;;;;9.97;3.00;;;37.70;1.00;;;;;;5019486;28;20432;-83
2022/08/11 12:53:31;;;;;;;5.40;2.83;;;37.70;1.00;;;;;;5018660;28;20480;-85
2022/08/11 13:06:13;;;;;;;8.33;2.50;;;37.80;1.00;;;;;;5001548;28;20479;-84
2022/08/11 13:09:06;;;;;;;7.40;2.80;;;37.90;1.00;;;;;;5016952;28;20499;-85
2022/08/11 13:14:44;;;;;;;6.23;2.30;;;37.80;1.00;;;;;;5018328;28;20502;-84
2022/08/11 13:17:23;;;;;;;6.10;2.20;;;37.60;1.00;;;;;;5017651;28;20452;-84
2022/08/11 13:24:08;;;;;;;;;;;;;;;;;;;;;
2022/08/11 13:26:39;;;;;;;9.50;3.27;;;38.50;1.00;;;;;;5004188;28;20857;-84
2022/08/11 13:29:17;;;;;;;;;;;;;;;;;;;;;
2022/08/11 13:31:51;;;;;;;8.13;2.93;;;39.40;1.00;;;;;;5018943;28;20451;-83
2022/08/11 13:35:07;;;;;;;11.33;3.07;;;40.10;1.00;;;;;;5015970;28;20527;-84
2022/08/11 13:38:16;;;;;;;5.60;2.30;;;40.70;1.00;;;;;;4969389;28;20501;-84
2022/08/11 13:40:56;;;;;;;6.40;2.70;;;40.10;1.00;;;;;;5019223;28;20456;-84
2022/08/11 13:43:24;;;;;;;7.10;2.60;;;39.80;1.00;;;;;;5019183;28;20503;-84
2022/08/11 13:46:17;;;;;;;8.40;2.73;;;38.70;1.00;;;;;;5018279;28;20459;-83
2022/08/11 13:48:41;;;;;;;9.83;2.90;;;37.40;1.00;;;;;;5014185;28;20452;-84
2022/08/11 13:53:55;;;;;;;7.00;2.70;;;37.60;1.00;;;;;;5014234;28;20596;-84
2022/08/11 13:56:22;;;;;;;8.10;2.80;;;37.20;1.00;;;;;;5015151;28;20455;-84
2022/08/11 14:02:27;;;;;;;6.30;2.67;;;37.50;1.00;;;;;;4950927;28;20980;-85
2022/08/11 14:05:25;;;;;;;6.60;2.50;;;38.00;1.00;;;;;;5012099;28;20526;-86
2022/08/11 14:31:37;;;;;;;;;;;;;;;;;;;;;
2022/08/11 14:50:25;;;;;;;5.23;2.73;;;38.60;1.00;;;;;;5008813;28;20457;-85
2022/08/11 14:52:59;;;;;;;6.10;3.30;;;38.40;1.00;;;;;;5015147;28;20454;-86
2022/08/11 15:05:23;;;;;;;7.93;2.77;;;38.20;1.00;;;;;;5014992;28;20516;-85
2022/08/11 15:07:59;;;;;;;6.50;3.17;;;38.00;1.00;;;;;;5015206;28;20456;-85
2022/08/11 15:10:31;;;;;;;9.70;3.10;;;37.00;1.00;;;;;;5015021;28;20943;-85
2022/08/11 15:13:09;;;;;;;5.30;2.90;;;36.80;1.00;;;;;;5015027;28;20477;-85
2022/08/11 15:25:32;;;;;;;8.50;2.90;;;37.60;1.00;;;;;;5014426;28;20525;-85
2022/08/11 16:05:49;;;;;;;5.67;2.70;;;38.10;1.00;;;;;;5407761;22;19572003;-87
2022/08/11 16:21:15;;;;;;;7.73;3.20;;;37.40;1.00;;;;;;6254626;22;20408;-87
2022/08/11 16:24:34;;;;;;;9.03;2.90;;;37.20;1.00;;;;;;6248612;22;20489;-87
2022/08/11 16:30:45;;;;;;;7.30;3.27;;;36.70;1.00;;;;;;6148763;23;20467;-85
2022/08/11 16:33:40;;;;;;;8.57;3.67;;;37.20;1.00;;;;;;6231644;22;20443;-86
2022/08/11 16:39:19;;;;;;;6.43;3.20;;;37.10;1.00;;;;;;6223822;23;20430;-89
2022/08/11 16:47:52;;;;;;;6.50;3.37;;;35.90;1.00;;;;;;6231167;23;20383;-89
2022/08/11 16:50:22;;;;;;;11.87;3.57;;;35.90;1.00;;;;;;6232513;23;20744;-88
2022/08/11 16:52:51;;;;;;;8.67;3.60;;;36.30;1.00;;;;;;6231933;22;20704;-88
2022/08/11 16:55:18;;;;;;;8.00;3.33;;;35.80;1.00;;;;;;6232446;23;20415;-88
2022/08/11 17:00:34;;;;;;;10.97;3.37;;;36.20;1.00;;;;;;6230605;23;20383;-89
2022/08/11 17:14:24;;;;;;;11.53;3.50;;;35.70;1.00;;;;;;6179006;23;20405;-88
2022/08/11 17:17:11;;;;;;;6.80;3.70;;;36.00;1.00;;;;;;6224982;23;20382;-88
2022/08/11 17:19:44;;;;;;;10.10;3.10;;;36.00;1.00;;;;;;6215774;23;20734;-87
2022/08/11 17:25:09;;;;;;;7.60;3.10;;;35.30;1.00;;;;;;6225102;23;20362;-88
2022/08/11 17:27:38;;;;;;;5.97;2.80;;;35.10;1.00;;;;;;6214414;23;20894;-88
2022/08/11 17:30:10;;;;;;;10.33;2.97;;;35.30;1.00;;;;;;6224979;23;20410;-88
2022/08/11 17:35:37;;;;;;;10.00;3.80;;;35.40;1.00;;;;;;6185863;23;20386;-88
2022/08/11 17:38:07;;;;;;;8.03;3.43;;;35.60;1.00;;;;;;6215540;23;20418;-88
2022/08/11 17:48:24;;;;;;;6.40;3.13;;;35.10;1.00;;;;;;6214492;23;20465;-89
2022/08/11 17:49:36;;;;;;;7.93;3.50;;;35.10;1.00;;;;;;6215482;23;20453;-88
2022/08/11 18:00:23;;;;;;;13.73;3.23;;;34.50;1.00;;;;;;6225473;23;20354;-88
2022/08/11 18:05:44;;;;;;;10.93;3.33;;;34.70;1.00;;;;;;6215239;23;20358;-88
